sensor_id;sensor_type;location;lat;lon;timestamp;P1;durP1;ratioP1;P2;durP2;ratioP2
74259;SDS011;62630;55.874;37.516;2023-05-10T00:02:24;7.88;;;3.22;;
74259;SDS011;62630;55.874;37.516;2023-05-10T00:04:49;8.25;;;3.53;;
74259;SDS011;62630;55.874;37.516;2023-05-10T00:07:15;5.55;;;3.10;;
74259;SDS011;62630;55.874;37.516;2023-05-10T00:09:42;7.13;;;3.03;;
74259;SDS011;62630;55.874;37.516;2023-05-10T00:12:08;6.47;;;3.10;;
74259;SDS011;62630;55.874;37.516;2023-05-10T00:14:34;9.30;;;3.45;;
74259;SDS011;62630;55.874;37.516;2023-05-10T00:17:00;7.22;;;3.20;;
74259;SDS011;62630;55.874;37.516;2023-05-10T00:19:25;7.72;;;2.75;;
74259;SDS011;62630;55.874;37.516;2023-05-10T00:21:51;7.60;;;3.33;;
74259;SDS011;62630;55.874;37.516;2023-05-10T00:24:16;6.90;;;2.95;;
74259;SDS011;62630;55.874;37.516;2023-05-10T00:26:42;8.52;;;3.88;;
74259;SDS011;62630;55.874;37.516;2023-05-10T00:29:08;8.38;;;2.92;;
74259;SDS011;62630;55.874;37.516;2023-05-10T00:31:36;4.40;;;3.13;;
74259;SDS011;62630;55.874;37.516;2023-05-10T00:34:02;4.85;;;2.38;;
74259;SDS011;62630;55.874;37.516;2023-05-10T00:36:27;6.10;;;2.67;;
74259;SDS011;62630;55.874;37.516;2023-05-10T00:38:53;6.22;;;2.90;;
74259;SDS011;62630;55.874;37.516;2023-05-10T00:41:18;5.05;;;2.45;;
74259;SDS011;62630;55.874;37.516;2023-05-10T00:43:44;4.25;;;2.42;;
74259;SDS011;62630;55.874;37.516;2023-05-10T00:46:10;6.40;;;2.65;;
74259;SDS011;62630;55.874;37.516;2023-05-10T00:48:36;5.07;;;2.30;;
74259;SDS011;62630;55.874;37.516;2023-05-10T00:51:01;5.35;;;2.45;;
74259;SDS011;62630;55.874;37.516;2023-05-10T00:53:27;7.10;;;2.83;;
74259;SDS011;62630;55.874;37.516;2023-05-10T00:55:56;11.70;;;3.03;;
74259;SDS011;62630;55.874;37.516;2023-05-10T00:58:21;7.43;;;2.50;;
74259;SDS011;62630;55.874;37.516;2023-05-10T01:00:48;4.53;;;2.72;;
74259;SDS011;62630;55.874;37.516;2023-05-10T01:03:15;10.25;;;2.72;;
74259;SDS011;62630;55.874;37.516;2023-05-10T01:05:42;5.68;;;2.83;;
74259;SDS011;62630;55.874;37.516;2023-05-10T01:08:07;8.48;;;2.55;;
74259;SDS011;62630;55.874;37.516;2023-05-10T01:10:33;7.28;;;2.65;;
74259;SDS011;62630;55.874;37.516;2023-05-10T01:12:59;6.20;;;2.45;;
74259;SDS011;62630;55.874;37.516;2023-05-10T01:15:25;5.07;;;2.47;;
74259;SDS011;62630;55.874;37.516;2023-05-10T01:17:51;6.13;;;2.38;;
74259;SDS011;62630;55.874;37.516;2023-05-10T01:20:18;5.60;;;2.45;;
74259;SDS011;62630;55.874;37.516;2023-05-10T01:34:27;3.75;;;2.25;;
74259;SDS011;62630;55.874;37.516;2023-05-10T01:37:09;6.15;;;2.50;;
74259;SDS011;62630;55.874;37.516;2023-05-10T01:42:16;5.35;;;2.50;;
74259;SDS011;62630;55.874;37.516;2023-05-10T01:44:55;7.32;;;2.70;;
74259;SDS011;62630;55.874;37.516;2023-05-10T01:47:42;4.00;;;2.22;;
74259;SDS011;62630;55.874;37.516;2023-05-10T01:50:20;6.13;;;2.13;;
74259;SDS011;62630;55.874;37.516;2023-05-10T01:52:51;3.83;;;2.38;;
74259;SDS011;62630;55.874;37.516;2023-05-10T01:55:20;5.43;;;2.50;;
74259;SDS011;62630;55.874;37.516;2023-05-10T01:57:50;7.07;;;2.50;;
74259;SDS011;62630;55.874;37.516;2023-05-10T02:00:22;3.10;;;2.25;;
74259;SDS011;62630;55.874;37.516;2023-05-10T02:02:49;5.55;;;2.53;;
74259;SDS011;62630;55.874;37.516;2023-05-10T02:05:16;6.18;;;2.47;;
74259;SDS011;62630;55.874;37.516;2023-05-10T02:10:09;6.18;;;2.55;;
74259;SDS011;62630;55.874;37.516;2023-05-10T02:12:37;4.85;;;2.10;;
74259;SDS011;62630;55.874;37.516;2023-05-10T02:15:06;3.80;;;1.95;;
74259;SDS011;62630;55.874;37.516;2023-05-10T02:17:34;4.47;;;2.88;;
74259;SDS011;62630;55.874;37.516;2023-05-10T02:20:02;5.60;;;2.30;;
74259;SDS011;62630;55.874;37.516;2023-05-10T02:22:29;3.83;;;2.65;;
74259;SDS011;62630;55.874;37.516;2023-05-10T02:24:57;6.05;;;2.13;;
74259;SDS011;62630;55.874;37.516;2023-05-10T02:27:24;4.88;;;2.28;;
74259;SDS011;62630;55.874;37.516;2023-05-10T02:29:52;5.63;;;2.20;;
74259;SDS011;62630;55.874;37.516;2023-05-10T02:32:19;4.35;;;2.53;;
74259;SDS011;62630;55.874;37.516;2023-05-10T02:34:47;3.70;;;2.30;;
74259;SDS011;62630;55.874;37.516;2023-05-10T02:37:17;5.22;;;2.28;;
74259;SDS011;62630;55.874;37.516;2023-05-10T02:39:44;4.57;;;2.28;;
74259;SDS011;62630;55.874;37.516;2023-05-10T02:42:16;7.15;;;2.33;;
74259;SDS011;62630;55.874;37.516;2023-05-10T02:44:45;5.75;;;2.33;;
74259;SDS011;62630;55.874;37.516;2023-05-10T02:47:13;5.13;;;2.30;;
74259;SDS011;62630;55.874;37.516;2023-05-10T02:49:38;4.75;;;2.60;;
74259;SDS011;62630;55.874;37.516;2023-05-10T02:52:04;7.20;;;2.80;;
74259;SDS011;62630;55.874;37.516;2023-05-10T02:54:37;4.97;;;2.53;;
74259;SDS011;62630;55.874;37.516;2023-05-10T02:57:08;4.35;;;2.50;;
74259;SDS011;62630;55.874;37.516;2023-05-10T02:59:44;6.25;;;2.63;;
74259;SDS011;62630;55.874;37.516;2023-05-10T03:02:10;6.03;;;2.63;;
74259;SDS011;62630;55.874;37.516;2023-05-10T03:07:03;4.63;;;2.30;;
74259;SDS011;62630;55.874;37.516;2023-05-10T03:09:29;5.90;;;2.60;;
74259;SDS011;62630;55.874;37.516;2023-05-10T03:12:14;5.00;;;2.45;;
74259;SDS011;62630;55.874;37.516;2023-05-10T03:17:30;7.47;;;3.00;;
74259;SDS011;62630;55.874;37.516;2023-05-10T03:22:38;5.82;;;2.70;;
74259;SDS011;62630;55.874;37.516;2023-05-10T03:25:34;5.10;;;2.38;;
74259;SDS011;62630;55.874;37.516;2023-05-10T03:28:01;5.57;;;2.63;;
74259;SDS011;62630;55.874;37.516;2023-05-10T03:30:31;5.35;;;2.58;;
74259;SDS011;62630;55.874;37.516;2023-05-10T03:36:00;4.70;;;2.45;;
74259;SDS011;62630;55.874;37.516;2023-05-10T03:38:25;7.97;;;2.50;;
74259;SDS011;62630;55.874;37.516;2023-05-10T03:40:51;9.77;;;3.05;;
74259;SDS011;62630;55.874;37.516;2023-05-10T03:43:16;6.32;;;2.40;;
74259;SDS011;62630;55.874;37.516;2023-05-10T03:45:42;5.68;;;2.90;;
74259;SDS011;62630;55.874;37.516;2023-05-10T03:48:07;2.72;;;2.00;;
74259;SDS011;62630;55.874;37.516;2023-05-10T03:50:35;5.38;;;2.35;;
74259;SDS011;62630;55.874;37.516;2023-05-10T03:53:01;5.18;;;2.45;;
74259;SDS011;62630;55.874;37.516;2023-05-10T03:55:27;4.68;;;2.25;;
74259;SDS011;62630;55.874;37.516;2023-05-10T03:57:53;4.57;;;1.95;;
74259;SDS011;62630;55.874;37.516;2023-05-10T04:00:19;9.68;;;2.55;;
74259;SDS011;62630;55.874;37.516;2023-05-10T04:02:45;5.13;;;2.50;;
74259;SDS011;62630;55.874;37.516;2023-05-10T04:05:10;6.97;;;2.42;;
74259;SDS011;62630;55.874;37.516;2023-05-10T04:07:36;7.00;;;2.40;;
74259;SDS011;62630;55.874;37.516;2023-05-10T04:10:02;5.20;;;2.53;;
74259;SDS011;62630;55.874;37.516;2023-05-10T04:12:27;8.27;;;2.35;;
74259;SDS011;62630;55.874;37.516;2023-05-10T04:14:53;9.82;;;2.65;;
74259;SDS011;62630;55.874;37.516;2023-05-10T04:17:18;5.50;;;2.58;;
74259;SDS011;62630;55.874;37.516;2023-05-10T04:19:44;5.60;;;2.30;;
74259;SDS011;62630;55.874;37.516;2023-05-10T04:22:10;7.57;;;2.60;;
74259;SDS011;62630;55.874;37.516;2023-05-10T04:24:36;8.82;;;2.50;;
74259;SDS011;62630;55.874;37.516;2023-05-10T04:27:01;5.25;;;2.58;;
74259;SDS011;62630;55.874;37.516;2023-05-10T04:29:27;7.10;;;2.50;;
74259;SDS011;62630;55.874;37.516;2023-05-10T04:31:55;6.30;;;3.45;;
74259;SDS011;62630;55.874;37.516;2023-05-10T04:34:21;8.27;;;3.45;;
74259;SDS011;62630;55.874;37.516;2023-05-10T04:36:50;6.47;;;3.00;;
74259;SDS011;62630;55.874;37.516;2023-05-10T04:39:15;9.63;;;2.78;;
74259;SDS011;62630;55.874;37.516;2023-05-10T04:41:41;6.50;;;2.92;;
74259;SDS011;62630;55.874;37.516;2023-05-10T04:44:06;8.70;;;2.78;;
74259;SDS011;62630;55.874;37.516;2023-05-10T04:46:32;10.65;;;3.22;;
74259;SDS011;62630;55.874;37.516;2023-05-10T04:49:00;6.63;;;2.67;;
74259;SDS011;62630;55.874;37.516;2023-05-10T04:51:26;14.25;;;2.33;;
74259;SDS011;62630;55.874;37.516;2023-05-10T04:53:52;8.65;;;2.88;;
74259;SDS011;62630;55.874;37.516;2023-05-10T04:56:17;9.25;;;2.33;;
74259;SDS011;62630;55.874;37.516;2023-05-10T04:58:43;8.20;;;2.70;;
74259;SDS011;62630;55.874;37.516;2023-05-10T05:01:08;8.13;;;2.85;;
74259;SDS011;62630;55.874;37.516;2023-05-10T05:03:35;7.80;;;2.30;;
74259;SDS011;62630;55.874;37.516;2023-05-10T05:06:01;6.95;;;2.20;;
74259;SDS011;62630;55.874;37.516;2023-05-10T05:08:26;6.72;;;2.30;;
74259;SDS011;62630;55.874;37.516;2023-05-10T05:10:52;8.68;;;2.97;;
74259;SDS011;62630;55.874;37.516;2023-05-10T05:13:17;11.80;;;3.05;;
74259;SDS011;62630;55.874;37.516;2023-05-10T05:15:43;12.10;;;2.60;;
74259;SDS011;62630;55.874;37.516;2023-05-10T05:18:09;4.30;;;2.67;;
74259;SDS011;62630;55.874;37.516;2023-05-10T05:20:34;5.22;;;2.35;;
74259;SDS011;62630;55.874;37.516;2023-05-10T05:23:00;8.77;;;2.35;;
74259;SDS011;62630;55.874;37.516;2023-05-10T05:25:26;5.00;;;2.42;;
74259;SDS011;62630;55.874;37.516;2023-05-10T05:27:51;8.32;;;2.17;;
74259;SDS011;62630;55.874;37.516;2023-05-10T05:30:17;8.23;;;1.92;;
74259;SDS011;62630;55.874;37.516;2023-05-10T05:32:43;5.68;;;2.25;;
74259;SDS011;62630;55.874;37.516;2023-05-10T05:35:08;6.15;;;2.03;;
74259;SDS011;62630;55.874;37.516;2023-05-10T05:37:34;9.48;;;2.50;;
74259;SDS011;62630;55.874;37.516;2023-05-10T05:40:00;4.43;;;2.25;;
74259;SDS011;62630;55.874;37.516;2023-05-10T05:42:26;9.60;;;2.50;;
74259;SDS011;62630;55.874;37.516;2023-05-10T05:44:52;5.15;;;2.63;;
74259;SDS011;62630;55.874;37.516;2023-05-10T05:47:18;5.70;;;1.92;;
74259;SDS011;62630;55.874;37.516;2023-05-10T05:49:43;4.88;;;2.10;;
74259;SDS011;62630;55.874;37.516;2023-05-10T05:52:10;4.70;;;1.95;;
74259;SDS011;62630;55.874;37.516;2023-05-10T05:54:36;4.97;;;1.73;;
74259;SDS011;62630;55.874;37.516;2023-05-10T05:57:02;6.40;;;1.90;;
74259;SDS011;62630;55.874;37.516;2023-05-10T05:59:27;9.90;;;2.40;;
74259;SDS011;62630;55.874;37.516;2023-05-10T06:01:54;4.28;;;1.88;;
74259;SDS011;62630;55.874;37.516;2023-05-10T06:04:22;4.00;;;2.17;;
74259;SDS011;62630;55.874;37.516;2023-05-10T06:06:48;6.70;;;1.60;;
74259;SDS011;62630;55.874;37.516;2023-05-10T06:09:13;4.05;;;1.60;;
74259;SDS011;62630;55.874;37.516;2023-05-10T06:11:39;6.20;;;2.00;;
74259;SDS011;62630;55.874;37.516;2023-05-10T06:14:04;3.95;;;1.65;;
74259;SDS011;62630;55.874;37.516;2023-05-10T06:18:57;4.47;;;1.88;;
74259;SDS011;62630;55.874;37.516;2023-05-10T06:21:23;6.53;;;2.03;;
74259;SDS011;62630;55.874;37.516;2023-05-10T06:23:48;3.97;;;1.90;;
74259;SDS011;62630;55.874;37.516;2023-05-10T06:26:14;5.43;;;2.53;;
74259;SDS011;62630;55.874;37.516;2023-05-10T06:28:45;9.43;;;1.88;;
74259;SDS011;62630;55.874;37.516;2023-05-10T06:31:11;5.03;;;1.55;;
74259;SDS011;62630;55.874;37.516;2023-05-10T06:33:37;6.60;;;1.95;;
74259;SDS011;62630;55.874;37.516;2023-05-10T06:36:03;4.10;;;1.70;;
74259;SDS011;62630;55.874;37.516;2023-05-10T06:38:31;4.97;;;1.70;;
74259;SDS011;62630;55.874;37.516;2023-05-10T06:40:59;3.50;;;1.83;;
74259;SDS011;62630;55.874;37.516;2023-05-10T06:43:24;4.63;;;1.58;;
74259;SDS011;62630;55.874;37.516;2023-05-10T06:45:51;6.32;;;2.10;;
74259;SDS011;62630;55.874;37.516;2023-05-10T06:48:16;9.68;;;1.70;;
74259;SDS011;62630;55.874;37.516;2023-05-10T06:50:42;3.45;;;1.60;;
74259;SDS011;62630;55.874;37.516;2023-05-10T06:53:08;5.45;;;2.53;;
74259;SDS011;62630;55.874;37.516;2023-05-10T06:55:33;3.08;;;1.58;;
74259;SDS011;62630;55.874;37.516;2023-05-10T06:57:59;7.63;;;1.90;;
74259;SDS011;62630;55.874;37.516;2023-05-10T07:00:24;2.85;;;1.77;;
74259;SDS011;62630;55.874;37.516;2023-05-10T07:02:50;3.40;;;1.88;;
74259;SDS011;62630;55.874;37.516;2023-05-10T07:05:16;5.15;;;1.80;;
74259;SDS011;62630;55.874;37.516;2023-05-10T07:07:41;8.77;;;2.30;;
74259;SDS011;62630;55.874;37.516;2023-05-10T07:10:07;4.03;;;1.70;;
74259;SDS011;62630;55.874;37.516;2023-05-10T07:12:33;4.97;;;2.00;;
74259;SDS011;62630;55.874;37.516;2023-05-10T07:14:58;4.93;;;2.30;;
74259;SDS011;62630;55.874;37.516;2023-05-10T07:17:24;6.20;;;2.20;;
74259;SDS011;62630;55.874;37.516;2023-05-10T07:19:50;6.55;;;2.00;;
74259;SDS011;62630;55.874;37.516;2023-05-10T07:22:15;7.30;;;1.85;;
74259;SDS011;62630;55.874;37.516;2023-05-10T07:24:45;4.95;;;1.90;;
74259;SDS011;62630;55.874;37.516;2023-05-10T07:27:10;9.77;;;2.35;;
74259;SDS011;62630;55.874;37.516;2023-05-10T07:29:36;7.80;;;2.55;;
74259;SDS011;62630;55.874;37.516;2023-05-10T07:32:02;5.43;;;1.80;;
74259;SDS011;62630;55.874;37.516;2023-05-10T07:34:27;6.28;;;1.85;;
74259;SDS011;62630;55.874;37.516;2023-05-10T07:36:55;10.95;;;2.05;;
74259;SDS011;62630;55.874;37.516;2023-05-10T07:39:21;5.30;;;2.00;;
74259;SDS011;62630;55.874;37.516;2023-05-10T07:41:47;7.95;;;2.28;;
74259;SDS011;62630;55.874;37.516;2023-05-10T07:44:13;5.00;;;1.90;;
74259;SDS011;62630;55.874;37.516;2023-05-10T07:46:38;3.20;;;1.70;;
74259;SDS011;62630;55.874;37.516;2023-05-10T07:49:04;3.45;;;1.85;;
74259;SDS011;62630;55.874;37.516;2023-05-10T07:51:29;5.97;;;2.00;;
74259;SDS011;62630;55.874;37.516;2023-05-10T07:53:55;7.13;;;1.73;;
74259;SDS011;62630;55.874;37.516;2023-05-10T07:56:22;5.10;;;2.40;;
74259;SDS011;62630;55.874;37.516;2023-05-10T07:58:50;9.38;;;1.80;;
74259;SDS011;62630;55.874;37.516;2023-05-10T08:01:16;4.22;;;1.60;;
74259;SDS011;62630;55.874;37.516;2023-05-10T08:03:42;4.15;;;2.08;;
74259;SDS011;62630;55.874;37.516;2023-05-10T08:06:08;4.13;;;2.00;;
74259;SDS011;62630;55.874;37.516;2023-05-10T08:08:34;5.60;;;1.60;;
74259;SDS011;62630;55.874;37.516;2023-05-10T08:10:59;2.88;;;1.50;;
74259;SDS011;62630;55.874;37.516;2023-05-10T08:13:25;5.55;;;2.78;;
74259;SDS011;62630;55.874;37.516;2023-05-10T08:15:50;3.65;;;1.90;;
74259;SDS011;62630;55.874;37.516;2023-05-10T08:18:18;5.05;;;1.60;;
74259;SDS011;62630;55.874;37.516;2023-05-10T08:20:44;7.40;;;1.40;;
74259;SDS011;62630;55.874;37.516;2023-05-10T08:23:10;3.22;;;1.45;;
74259;SDS011;62630;55.874;37.516;2023-05-10T08:25:37;2.20;;;1.60;;
74259;SDS011;62630;55.874;37.516;2023-05-10T08:28:03;6.30;;;1.55;;
74259;SDS011;62630;55.874;37.516;2023-05-10T08:30:28;4.15;;;1.60;;
74259;SDS011;62630;55.874;37.516;2023-05-10T08:32:54;3.38;;;1.52;;
74259;SDS011;62630;55.874;37.516;2023-05-10T08:35:19;7.95;;;2.45;;
74259;SDS011;62630;55.874;37.516;2023-05-10T08:37:46;4.10;;;1.55;;
74259;SDS011;62630;55.874;37.516;2023-05-10T08:40:13;3.38;;;1.60;;
74259;SDS011;62630;55.874;37.516;2023-05-10T08:42:42;3.42;;;1.67;;
74259;SDS011;62630;55.874;37.516;2023-05-10T08:45:12;5.88;;;1.60;;
74259;SDS011;62630;55.874;37.516;2023-05-10T08:47:40;3.25;;;1.60;;
74259;SDS011;62630;55.874;37.516;2023-05-10T08:50:06;3.75;;;1.60;;
74259;SDS011;62630;55.874;37.516;2023-05-10T08:52:33;4.85;;;1.60;;
74259;SDS011;62630;55.874;37.516;2023-05-10T08:55:03;3.28;;;1.92;;
74259;SDS011;62630;55.874;37.516;2023-05-10T08:57:29;10.98;;;1.90;;
74259;SDS011;62630;55.874;37.516;2023-05-10T08:59:55;4.32;;;1.33;;
74259;SDS011;62630;55.874;37.516;2023-05-10T09:02:20;7.57;;;2.22;;
74259;SDS011;62630;55.874;37.516;2023-05-10T09:04:48;3.85;;;1.50;;
74259;SDS011;62630;55.874;37.516;2023-05-10T09:07:14;3.83;;;1.20;;
74259;SDS011;62630;55.874;37.516;2023-05-10T09:09:39;6.38;;;1.83;;
74259;SDS011;62630;55.874;37.516;2023-05-10T09:12:05;7.38;;;1.83;;
74259;SDS011;62630;55.874;37.516;2023-05-10T09:14:35;4.35;;;1.52;;
74259;SDS011;62630;55.874;37.516;2023-05-10T09:17:02;6.82;;;1.42;;
74259;SDS011;62630;55.874;37.516;2023-05-10T09:19:29;6.18;;;1.73;;
74259;SDS011;62630;55.874;37.516;2023-05-10T09:21:54;7.00;;;1.40;;
74259;SDS011;62630;55.874;37.516;2023-05-10T09:24:25;2.65;;;1.27;;
74259;SDS011;62630;55.874;37.516;2023-05-10T09:26:52;6.15;;;1.38;;
74259;SDS011;62630;55.874;37.516;2023-05-10T09:29:17;8.82;;;1.50;;
74259;SDS011;62630;55.874;37.516;2023-05-10T09:31:44;6.80;;;1.70;;
74259;SDS011;62630;55.874;37.516;2023-05-10T09:34:19;3.38;;;1.50;;
74259;SDS011;62630;55.874;37.516;2023-05-10T09:36:50;6.15;;;1.60;;
74259;SDS011;62630;55.874;37.516;2023-05-10T09:39:20;2.17;;;1.52;;
74259;SDS011;62630;55.874;37.516;2023-05-10T09:41:46;5.20;;;1.40;;
74259;SDS011;62630;55.874;37.516;2023-05-10T09:44:14;3.65;;;1.83;;
74259;SDS011;62630;55.874;37.516;2023-05-10T09:46:42;3.05;;;1.20;;
74259;SDS011;62630;55.874;37.516;2023-05-10T09:49:08;3.05;;;1.13;;
74259;SDS011;62630;55.874;37.516;2023-05-10T09:51:39;3.28;;;1.10;;
74259;SDS011;62630;55.874;37.516;2023-05-10T09:54:14;3.72;;;1.23;;
74259;SDS011;62630;55.874;37.516;2023-05-10T09:56:41;3.40;;;1.50;;
74259;SDS011;62630;55.874;37.516;2023-05-10T09:59:09;2.03;;;1.27;;
74259;SDS011;62630;55.874;37.516;2023-05-10T10:01:42;4.65;;;1.33;;
74259;SDS011;62630;55.874;37.516;2023-05-10T10:04:21;4.93;;;1.73;;
74259;SDS011;62630;55.874;37.516;2023-05-10T10:06:47;5.45;;;1.65;;
74259;SDS011;62630;55.874;37.516;2023-05-10T10:09:25;3.53;;;1.35;;
74259;SDS011;62630;55.874;37.516;2023-05-10T10:12:10;2.88;;;1.30;;
74259;SDS011;62630;55.874;37.516;2023-05-10T10:14:45;1.63;;;1.30;;
74259;SDS011;62630;55.874;37.516;2023-05-10T10:17:13;3.10;;;1.55;;
74259;SDS011;62630;55.874;37.516;2023-05-10T10:19:40;3.65;;;1.20;;
74259;SDS011;62630;55.874;37.516;2023-05-10T10:22:06;4.80;;;1.20;;
74259;SDS011;62630;55.874;37.516;2023-05-10T10:24:32;5.85;;;1.50;;
74259;SDS011;62630;55.874;37.516;2023-05-10T10:30:02;3.97;;;1.15;;
74259;SDS011;62630;55.874;37.516;2023-05-10T10:35:27;3.28;;;1.40;;
74259;SDS011;62630;55.874;37.516;2023-05-10T10:37:54;2.15;;;1.50;;
74259;SDS011;62630;55.874;37.516;2023-05-10T10:40:27;5.40;;;1.15;;
74259;SDS011;62630;55.874;37.516;2023-05-10T10:51:16;2.45;;;1.73;;
74259;SDS011;62630;55.874;37.516;2023-05-10T10:53:42;1.98;;;1.27;;
74259;SDS011;62630;55.874;37.516;2023-05-10T10:56:12;2.38;;;1.10;;
74259;SDS011;62630;55.874;37.516;2023-05-10T10:58:48;3.90;;;1.35;;
74259;SDS011;62630;55.874;37.516;2023-05-10T11:01:17;5.00;;;1.60;;
74259;SDS011;62630;55.874;37.516;2023-05-10T11:04:27;2.70;;;1.33;;
74259;SDS011;62630;55.874;37.516;2023-05-10T11:06:35;3.58;;;1.60;;
74259;SDS011;62630;55.874;37.516;2023-05-10T11:09:08;4.22;;;1.40;;
74259;SDS011;62630;55.874;37.516;2023-05-10T11:11:36;4.20;;;1.50;;
74259;SDS011;62630;55.874;37.516;2023-05-10T11:14:13;3.50;;;1.50;;
74259;SDS011;62630;55.874;37.516;2023-05-10T11:19:10;7.90;;;1.33;;
74259;SDS011;62630;55.874;37.516;2023-05-10T11:24:30;5.63;;;1.60;;
74259;SDS011;62630;55.874;37.516;2023-05-10T11:26:56;4.05;;;1.60;;
74259;SDS011;62630;55.874;37.516;2023-05-10T11:29:22;2.67;;;1.30;;
74259;SDS011;62630;55.874;37.516;2023-05-10T11:31:48;4.43;;;1.60;;
74259;SDS011;62630;55.874;37.516;2023-05-10T11:36:53;3.15;;;1.55;;
74259;SDS011;62630;55.874;37.516;2023-05-10T11:39:20;2.47;;;1.42;;
74259;SDS011;62630;55.874;37.516;2023-05-10T11:41:49;4.28;;;1.38;;
74259;SDS011;62630;55.874;37.516;2023-05-10T11:44:15;5.00;;;1.58;;
74259;SDS011;62630;55.874;37.516;2023-05-10T11:46:41;4.68;;;1.45;;
74259;SDS011;62630;55.874;37.516;2023-05-10T11:49:07;5.38;;;1.60;;
74259;SDS011;62630;55.874;37.516;2023-05-10T11:51:33;5.78;;;1.50;;
74259;SDS011;62630;55.874;37.516;2023-05-10T11:54:08;2.58;;;1.20;;
74259;SDS011;62630;55.874;37.516;2023-05-10T11:56:38;2.70;;;1.50;;
74259;SDS011;62630;55.874;37.516;2023-05-10T11:59:07;5.82;;;1.50;;
74259;SDS011;62630;55.874;37.516;2023-05-10T12:01:33;1.55;;;1.02;;
74259;SDS011;62630;55.874;37.516;2023-05-10T12:04:00;7.88;;;1.75;;
74259;SDS011;62630;55.874;37.516;2023-05-10T12:06:26;2.35;;;1.02;;
74259;SDS011;62630;55.874;37.516;2023-05-10T12:08:54;1.88;;;1.10;;
74259;SDS011;62630;55.874;37.516;2023-05-10T12:11:20;3.30;;;1.08;;
74259;SDS011;62630;55.874;37.516;2023-05-10T12:13:50;2.78;;;1.02;;
74259;SDS011;62630;55.874;37.516;2023-05-10T12:16:17;4.80;;;1.30;;
74259;SDS011;62630;55.874;37.516;2023-05-10T12:18:44;3.65;;;1.25;;
74259;SDS011;62630;55.874;37.516;2023-05-10T12:21:14;2.58;;;1.25;;
74259;SDS011;62630;55.874;37.516;2023-05-10T12:23:41;5.63;;;1.42;;
74259;SDS011;62630;55.874;37.516;2023-05-10T12:26:10;6.68;;;1.50;;
74259;SDS011;62630;55.874;37.516;2023-05-10T12:28:36;1.95;;;1.08;;
74259;SDS011;62630;55.874;37.516;2023-05-10T12:31:03;8.32;;;2.15;;
74259;SDS011;62630;55.874;37.516;2023-05-10T12:36:23;2.10;;;1.27;;
74259;SDS011;62630;55.874;37.516;2023-05-10T12:38:49;5.20;;;1.08;;
74259;SDS011;62630;55.874;37.516;2023-05-10T12:41:17;3.53;;;1.10;;
74259;SDS011;62630;55.874;37.516;2023-05-10T12:43:43;2.15;;;1.00;;
74259;SDS011;62630;55.874;37.516;2023-05-10T12:48:37;6.47;;;1.42;;
74259;SDS011;62630;55.874;37.516;2023-05-10T12:51:03;3.08;;;1.23;;
74259;SDS011;62630;55.874;37.516;2023-05-10T12:53:29;2.20;;;1.45;;
74259;SDS011;62630;55.874;37.516;2023-05-10T12:55:56;3.90;;;1.52;;
74259;SDS011;62630;55.874;37.516;2023-05-10T12:58:21;5.78;;;1.50;;
74259;SDS011;62630;55.874;37.516;2023-05-10T13:00:47;5.00;;;1.70;;
74259;SDS011;62630;55.874;37.516;2023-05-10T13:03:13;3.88;;;1.50;;
74259;SDS011;62630;55.874;37.516;2023-05-10T13:05:42;2.88;;;1.50;;
74259;SDS011;62630;55.874;37.516;2023-05-10T13:08:08;2.72;;;1.15;;
74259;SDS011;62630;55.874;37.516;2023-05-10T13:10:34;5.05;;;1.30;;
74259;SDS011;62630;55.874;37.516;2023-05-10T13:13:00;4.90;;;1.27;;
74259;SDS011;62630;55.874;37.516;2023-05-10T13:15:26;3.03;;;1.33;;
74259;SDS011;62630;55.874;37.516;2023-05-10T13:17:53;1.52;;;0.85;;
74259;SDS011;62630;55.874;37.516;2023-05-10T13:20:19;1.98;;;1.20;;
74259;SDS011;62630;55.874;37.516;2023-05-10T13:22:45;6.80;;;1.35;;
74259;SDS011;62630;55.874;37.516;2023-05-10T13:25:11;1.10;;;1.00;;
74259;SDS011;62630;55.874;37.516;2023-05-10T13:27:39;3.50;;;1.42;;
74259;SDS011;62630;55.874;37.516;2023-05-10T13:30:06;3.78;;;1.48;;
74259;SDS011;62630;55.874;37.516;2023-05-10T13:32:32;5.70;;;1.10;;
74259;SDS011;62630;55.874;37.516;2023-05-10T13:34:58;2.22;;;1.25;;
74259;SDS011;62630;55.874;37.516;2023-05-10T13:37:25;3.78;;;1.10;;
74259;SDS011;62630;55.874;37.516;2023-05-10T13:39:50;4.70;;;1.45;;
74259;SDS011;62630;55.874;37.516;2023-05-10T13:42:17;2.47;;;1.30;;
74259;SDS011;62630;55.874;37.516;2023-05-10T13:44:43;6.20;;;1.70;;
74259;SDS011;62630;55.874;37.516;2023-05-10T13:47:10;5.97;;;1.27;;
74259;SDS011;62630;55.874;37.516;2023-05-10T13:49:36;4.68;;;1.85;;
74259;SDS011;62630;55.874;37.516;2023-05-10T13:52:02;7.97;;;2.00;;
74259;SDS011;62630;55.874;37.516;2023-05-10T13:54:32;4.82;;;1.60;;
74259;SDS011;62630;55.874;37.516;2023-05-10T13:57:03;4.90;;;1.42;;
74259;SDS011;62630;55.874;37.516;2023-05-10T13:59:29;4.32;;;1.10;;
74259;SDS011;62630;55.874;37.516;2023-05-10T14:01:58;2.28;;;1.30;;
74259;SDS011;62630;55.874;37.516;2023-05-10T14:06:51;7.43;;;1.52;;
74259;SDS011;62630;55.874;37.516;2023-05-10T14:09:18;3.53;;;1.40;;
74259;SDS011;62630;55.874;37.516;2023-05-10T14:11:45;3.83;;;1.33;;
74259;SDS011;62630;55.874;37.516;2023-05-10T14:14:11;4.95;;;1.70;;
74259;SDS011;62630;55.874;37.516;2023-05-10T14:16:41;2.65;;;1.40;;
74259;SDS011;62630;55.874;37.516;2023-05-10T14:19:08;6.63;;;1.67;;
74259;SDS011;62630;55.874;37.516;2023-05-10T14:21:34;10.25;;;1.75;;
74259;SDS011;62630;55.874;37.516;2023-05-10T14:23:59;8.05;;;1.67;;
74259;SDS011;62630;55.874;37.516;2023-05-10T14:26:25;4.57;;;1.60;;
74259;SDS011;62630;55.874;37.516;2023-05-10T14:28:51;2.90;;;1.50;;
74259;SDS011;62630;55.874;37.516;2023-05-10T14:31:17;3.40;;;1.45;;
74259;SDS011;62630;55.874;37.516;2023-05-10T14:33:45;9.90;;;1.48;;
74259;SDS011;62630;55.874;37.516;2023-05-10T14:36:13;6.57;;;1.40;;
74259;SDS011;62630;55.874;37.516;2023-05-10T14:38:40;2.55;;;1.30;;
74259;SDS011;62630;55.874;37.516;2023-05-10T14:41:06;5.43;;;1.73;;
74259;SDS011;62630;55.874;37.516;2023-05-10T14:43:32;4.90;;;1.77;;
74259;SDS011;62630;55.874;37.516;2023-05-10T14:46:01;2.10;;;1.42;;
74259;SDS011;62630;55.874;37.516;2023-05-10T14:48:28;5.60;;;1.42;;
74259;SDS011;62630;55.874;37.516;2023-05-10T14:50:54;4.18;;;1.63;;
74259;SDS011;62630;55.874;37.516;2023-05-10T14:53:19;5.72;;;1.77;;
74259;SDS011;62630;55.874;37.516;2023-05-10T14:55:46;9.20;;;1.75;;
74259;SDS011;62630;55.874;37.516;2023-05-10T14:58:12;4.05;;;1.33;;
74259;SDS011;62630;55.874;37.516;2023-05-10T15:00:38;4.07;;;1.33;;
74259;SDS011;62630;55.874;37.516;2023-05-10T15:03:03;3.92;;;1.40;;
74259;SDS011;62630;55.874;37.516;2023-05-10T15:05:29;7.90;;;1.38;;
74259;SDS011;62630;55.874;37.516;2023-05-10T15:07:54;2.53;;;1.45;;
74259;SDS011;62630;55.874;37.516;2023-05-10T15:10:20;3.03;;;1.70;;
74259;SDS011;62630;55.874;37.516;2023-05-10T15:12:47;3.70;;;1.30;;
74259;SDS011;62630;55.874;37.516;2023-05-10T15:15:13;3.08;;;1.27;;
74259;SDS011;62630;55.874;37.516;2023-05-10T15:17:38;5.55;;;1.52;;
74259;SDS011;62630;55.874;37.516;2023-05-10T15:20:04;8.30;;;1.80;;
74259;SDS011;62630;55.874;37.516;2023-05-10T15:22:39;3.50;;;1.73;;
74259;SDS011;62630;55.874;37.516;2023-05-10T15:25:33;3.63;;;1.42;;
74259;SDS011;62630;55.874;37.516;2023-05-10T15:28:02;5.85;;;1.23;;
74259;SDS011;62630;55.874;37.516;2023-05-10T15:30:29;5.05;;;1.65;;
74259;SDS011;62630;55.874;37.516;2023-05-10T15:32:56;8.02;;;1.55;;
74259;SDS011;62630;55.874;37.516;2023-05-10T15:35:22;4.32;;;2.40;;